Date,TemperatureHighF,TemperatureAvgF,TemperatureLowF,DewpointHighF,DewpointAvgF,DewpointLowF,HumidityHigh,HumidityAvg,HumidityLow,PressureMaxIn,PressureMinIn,WindSpeedMaxMPH,WindSpeedAvgMPH,GustSpeedMaxMPH,PrecipitationSumIn
2013-1-1,43,32,22,22,13,1,77,49,17,30.30,30.04,7,2,20,0.00
2013-1-2,51,31,15,20,16,8,83,57,27,30.39,30.06,6,1,17,0.00
2013-1-3,29,25,20,23,21,16,88,84,76,30.44,30.15,7,3,14,0.00
2013-1-4,44,30,18,28,17,2,86,66,20,30.40,30.31,8,3,16,0.05
2013-1-5,47,24,7,20,9,3,83,59,16,30.72,30.24,7,2,16,0.06
2013-1-6,49,38,30,32,22,16,69,53,33,30.48,29.93,8,3,21,0.00
2013-1-7,49,47,45,32,32,31,59,55,52,29.95,29.83,7,4,19,0.00
2013-1-9,46,44,41,30,28,27,59,53,48,30.10,30.03,3,2,7,0.26
2013-1-10,54,48,30,36,23,12,83,42,19,30.09,29.65,15,7,33,0.69
2013-1-11,57,47,34,26,21,14,60,37,19,29.83,29.59,13,5,32,0.00
2013-1-12,43,28,11,18,8,0,71,43,24,30.30,29.70,12,2,24,0.00
2013-1-13,35,35,35,9,8,8,33,32,31,30.08,30.03,6,4,16,0.00
2013-3-1,22,22,22,3,3,3,42,42,42,30.37,30.37,0,0,3,0.00
2013-3-2,63,40,19,12,8,3,52,31,12,30.55,30.21,6,1,14,0.00
2013-3-3,71,54,24,10,4,-3,51,17,6,30.23,29.69,13,4,27,0.00
2013-3-4,70,63,56,20,1,-10,21,9,4,29.81,29.52,17,10,35,0.00
2013-3-5,56,43,31,31,22,14,81,47,22,30.33,29.78,10,4,20,0.00
2013-3-6,65,48,30,23,20,17,61,35,18,30.27,29.90,10,3,21,0.00
2013-3-7,72,52,31,25,19,13,59,33,11,30.07,29.84,9,2,20,0.00
2013-3-8,70,62,53,37,31,22,53,32,23,29.90,29.58,13,6,25,0.00
2013-3-9,60,52,39,31,23,12,51,33,23,29.82,29.52,12,7,41,0.00
2013-3-10,44,35,22,20,14,8,67,43,24,30.28,29.82,8,4,21,0.00
2013-3-11,58,38,18,17,11,5,75,39,14,30.36,30.00,10,3,18,0.00
2013-3-12,61,49,29,22,13,4,57,25,13,30.24,29.89,9,3,18,0.00
2013-3-13,68,44,23,22,15,7,73,39,12,30.39,30.18,9,2,16,0.00
2013-3-14,74,49,25,16,11,8,52,27,9,30.38,30.08,8,1,14,0.00
2013-3-15,76,51,27,16,11,7,49,25,8,30.25,29.87,7,1,17,0.00
2013-3-16,76,54,31,14,8,1,41,20,6,30.02,29.58,10,3,25,0.00
2013-3-17,71,63,37,16,9,3,24,12,8,29.80,29.51,12,6,33,0.00
2013-3-18,67,59,39,18,14,11,31,17,12,29.92,29.62,12,5,30,0.00
2013-3-19,70,53,31,20,14,10,48,24,10,30.09,29.71,10,2,25,0.00
2013-3-20,62,47,29,38,32,24,91,60,33,30.18,29.87,9,2,20,0.00
2013-3-21,73,62,37,32,22,14,75,24,11,29.91,29.43,16,5,35,0.00
2013-3-22,71,61,42,22,15,9,33,17,9,29.62,29.47,13,4,29,0.00
2013-3-23,66,58,43,23,14,3,36,19,10,29.73,29.51,14,7,35,0.00
2013-3-24,57,39,18,12,4,-14,64,28,11,30.11,29.77,10,3,20,0.00
2013-3-25,51,35,17,13,8,2,54,34,20,30.25,29.99,7,2,20,0.00
2013-3-26,59,44,25,15,12,11,54,30,16,30.33,30.02,10,4,20,0.00
2013-3-27,72,53,30,24,18,11,57,29,12,30.08,29.84,12,2,21,0.00
2013-3-28,73,56,36,37,25,21,60,35,15,30.08,29.82,6,1,16,0.00
2013-3-29,75,52,34,34,25,16,71,43,13,30.05,29.88,7,1,16,0.00
2013-3-30,75,56,31,22,18,15,51,26,12,30.07,29.72,12,2,20,0.00
2013-3-31,70,59,42,34,28,20,63,32,17,29.92,29.76,8,2,18,0.00
2013-4-1,76,56,34,47,32,22,80,48,15,30.00,29.68,8,2,18,0.00
2013-4-2,69,53,38,44,37,30,86,60,26,29.84,29.67,6,2,17,0.00
2013-4-3,62,46,34,39,32,26,94,65,26,30.15,29.78,8,2,17,0.00
2013-4-4,70,54,28,26,22,15,78,34,12,30.13,29.94,6,2,21,0.00
2013-4-5,75,62,50,29,24,18,41,24,13,29.99,29.71,13,5,29,0.00
2013-4-6,75,66,53,26,20,8,26,17,8,29.76,29.63,12,6,27,0.00
2013-4-7,76,59,35,21,14,9,40,20,10,29.83,29.54,15,3,24,0.00
2013-4-8,77,65,40,22,17,12,33,17,10,29.69,29.30,13,6,25,0.00
2013-4-9,75,63,48,27,21,14,34,21,10,29.60,29.24,14,7,27,0.00
2013-4-10,57,46,33,36,27,19,93,53,24,29.90,29.60,7,2,20,0.11
2013-4-11,61,45,27,22,18,13,78,39,15,29.92,29.70,10,4,24,0.00
2013-4-12,72,51,26,20,14,11,61,29,10,29.92,29.61,6,2,17,0.00
2013-4-13,68,50,38,47,33,19,76,54,24,29.70,29.58,8,1,18,0.03
2013-4-14,75,57,35,31,22,13,72,31,10,29.74,29.46,13,5,28,0.00
2013-4-15,77,63,38,19,16,12,44,19,10,29.72,29.55,12,5,29,0.00
2013-4-16,82,63,36,18,9,2,37,14,5,29.77,29.55,12,3,21,0.00
2013-4-17,79,67,40,48,12,-3,50,17,4,29.64,29.38,14,6,28,0.00
2013-4-18,60,50,30,26,16,4,51,27,15,30.10,29.53,9,3,22,0.00
2013-4-19,63,41,18,15,9,-1,62,33,9,30.27,30.00,8,2,21,0.00
2013-4-20,73,55,30,19,7,-6,37,17,5,30.06,29.63,15,4,27,0.00
2013-4-21,76,59,37,14,6,-4,28,13,7,29.97,29.70,6,2,21,0.00
2013-4-22,80,60,34,12,6,2,29,14,5,29.92,29.58,14,3,21,0.00
2013-4-23,71,53,38,30,19,3,49,28,14,29.95,29.68,8,3,20,0.00
2013-4-24,64,45,25,36,28,20,80,55,35,30.16,29.90,9,4,20,0.00
2013-4-25,76,56,32,44,34,25,88,48,19,30.15,29.71,14,5,30,0.00
2013-4-26,76,65,41,38,23,8,66,26,7,29.91,29.70,14,5,30,0.00
2013-4-30,83,66,41,18,11,7,26,13,7,29.76,29.44,8,3,24,0.00
2013-5-1,83,59,31,38,22,13,89,39,8,30.34,29.60,10,3,20,0.00
2013-5-2,46,34,17,25,19,4,79,57,18,30.54,30.35,6,3,24,0.00
2013-5-3,64,44,27,20,8,3,43,25,12,30.34,29.91,6,2,13,0.00
2013-5-4,74,58,38,24,18,14,41,23,14,29.96,29.74,6,2,16,0.00
2013-5-5,72,63,55,31,23,7,41,23,12,29.99,29.57,8,4,26,0.00
2013-5-6,74,70,66,28,26,25,24,19,16,29.82,29.72,9,6,21,0.00
2013-5-21,80,61,40,28,19,11,52,23,9,29.80,29.61,8,2,21,0.00
2013-5-22,86,75,58,50,30,14,45,23,7,29.76,29.51,12,5,30,0.00
2013-5-23,89,67,55,54,47,35,89,54,18,29.92,29.51,12,4,29,0.46
2013-5-24,78,69,59,63,51,37,85,54,25,29.84,29.69,8,2,24,0.07
2013-5-25,83,71,57,54,45,37,85,43,22,29.84,29.66,7,3,24,0.01
2013-5-26,86,76,64,54,45,30,62,37,13,29.79,29.57,16,5,29,0.01
2013-5-27,88,85,80,43,39,33,26,20,14,29.60,29.50,10,7,24,0.00
2013-6-14,69,65,59,61,58,57,91,80,71,29.83,29.71,5,1,14,0.06
2013-6-15,83,68,53,60,54,46,96,66,30,29.85,29.70,3,0,12,0.00
2013-6-16,86,68,52,61,54,49,95,64,30,29.95,29.67,5,1,14,0.61
2013-6-17,83,69,56,61,56,47,92,68,29,29.90,29.69,7,2,37,0.81
2013-6-18,81,68,53,61,56,48,93,67,39,29.97,29.69,6,2,16,0.00
2013-6-19,86,75,61,59,53,40,86,50,23,29.73,29.59,8,3,21,0.00
2013-6-20,86,76,64,59,51,41,72,45,22,29.77,29.62,13,4,22,0.00
2013-6-21,87,72,57,58,54,48,89,56,28,29.79,29.64,9,3,18,0.07
2013-6-22,88,76,68,57,52,44,67,46,22,29.76,29.60,7,3,18,0.06
2013-6-23,86,74,58,61,53,44,86,52,23,29.74,29.57,8,2,20,0.02
2013-6-24,86,72,60,63,55,47,94,61,27,29.79,29.58,12,2,31,0.90
2013-6-25,88,74,59,61,54,45,94,56,22,29.84,29.61,5,1,15,0.00
2013-6-26,92,78,62,59,47,33,88,41,14,29.78,29.60,9,2,20,0.00
2013-6-27,90,75,56,59,48,38,89,46,17,29.86,29.66,6,1,17,0.00
2013-6-28,84,70,50,54,44,37,81,47,20,29.93,29.73,7,1,16,0.00
2013-6-29,88,72,53,58,48,39,92,50,18,29.88,29.68,5,1,14,0.00
2013-6-30,81,70,58,54,50,47,75,51,30,29.87,29.67,5,1,9,0.00
2013-7-1,67,60,52,58,54,50,94,80,57,30.04,29.79,6,2,14,0.06
2013-7-2,74,63,49,49,48,45,88,59,39,30.08,29.86,7,2,13,0.00
2013-7-3,75,68,56,50,46,39,76,47,33,29.93,29.70,7,2,20,0.00
2013-7-4,80,71,54,49,44,39,71,39,27,29.79,29.62,8,3,26,0.00
2013-7-5,86,75,59,51,46,42,64,37,23,29.72,29.56,8,3,21,0.00
2013-7-6,88,73,63,51,50,46,64,45,24,29.71,29.54,9,2,20,0.00
2013-7-7,86,72,54,53,49,44,81,47,23,29.74,29.60,8,3,21,0.00
2013-7-8,83,72,60,58,53,47,76,54,28,29.83,29.69,7,3,15,0.00
2013-7-9,80,70,58,61,57,54,89,64,41,29.90,29.76,7,2,20,0.02
2013-7-10,86,73,58,60,55,50,90,56,31,29.94,29.70,5,1,20,0.00
2013-7-11,80,68,60,62,56,52,88,66,47,29.87,29.69,8,2,20,1.07
2013-7-12,84,71,54,59,52,46,95,55,27,29.87,29.64,8,2,18,0.01
2013-7-13,84,74,55,57,48,42,89,44,23,29.83,29.66,8,2,18,0.00
2013-7-14,88,73,54,56,46,38,85,42,19,29.82,29.54,7,1,18,0.00
2013-7-15,77,61,55,57,52,36,91,77,23,29.96,29.57,8,2,18,0.00
2013-7-16,64,58,55,55,53,50,92,83,68,30.02,29.92,5,1,12,0.05
2013-7-17,63,60,57,60,58,55,94,92,89,30.05,29.96,7,3,17,1.20
2013-7-18,66,62,60,60,58,57,94,86,74,30.00,29.88,7,3,17,0.12
2013-7-19,68,64,60,62,59,57,91,85,73,29.93,29.79,6,1,14,0.43
2013-7-20,73,64,56,61,58,54,93,82,58,29.86,29.72,6,1,16,0.14
2013-7-21,76,65,54,61,57,53,97,77,51,29.84,29.68,7,2,13,0.01
2013-7-22,78,66,56,62,58,55,96,77,50,29.79,29.72,3,1,10,0.00
2013-7-23,81,70,57,65,58,56,97,69,46,29.81,29.69,5,1,14,0.01
2013-7-24,82,66,52,61,57,51,97,74,41,29.94,29.73,3,1,19,0.00
2013-7-25,82,68,55,64,56,50,97,69,35,29.93,29.83,3,1,13,0.00
2013-7-26,80,66,60,63,61,57,97,85,46,30.03,29.85,3,1,21,1.02
2013-7-27,76,65,56,63,58,54,94,80,51,29.93,29.73,2,0,13,0.13
2013-7-28,80,68,60,63,59,56,95,73,47,29.82,29.67,5,1,13,0.03
2013-7-29,80,75,69,61,59,57,73,59,47,29.85,29.78,3,2,12,0.03
2013-8-5,73,65,61,57,55,54,79,71,58,29.75,29.69,1,0,5,0.00
2013-8-6,85,72,58,59,54,49,86,57,29,29.83,29.68,9,2,18,0.00
2013-8-7,80,70,59,57,55,50,84,59,43,29.85,29.69,8,2,18,0.00
2013-8-8,85,71,58,58,52,44,95,58,25,29.83,29.64,8,2,18,0.10
2013-8-9,80,69,52,58,54,49,91,61,45,29.86,29.69,7,1,13,0.00
2013-8-10,77,68,58,63,55,49,88,65,47,29.99,29.83,6,2,18,0.06
2013-8-11,78,70,58,57,55,53,86,59,43,29.96,29.79,7,2,16,0.00
2013-8-12,82,71,57,64,56,52,90,63,38,29.87,29.77,7,2,16,0.09
2013-8-13,84,70,54,60,54,47,96,62,29,29.92,29.73,7,1,14,0.01
2013-8-14,80,68,55,60,57,53,94,68,42,29.91,29.74,8,2,20,0.00
2013-8-15,82,67,54,59,55,50,96,69,34,29.94,29.80,5,0,13,0.00
2013-8-16,84,70,53,55,50,44,90,53,26,29.91,29.80,6,1,12,0.00
2013-8-17,86,72,54,53,48,41,91,49,22,29.93,29.72,7,2,17,0.00
2013-8-18,85,70,58,60,52,46,86,56,26,29.93,29.73,7,2,21,0.29
2013-8-19,84,69,49,57,47,38,95,55,21,29.98,29.74,6,1,20,0.00
2013-8-20,81,71,54,52,47,41,78,44,27,29.87,29.73,8,2,25,0.00
2013-8-21,80,67,51,52,45,34,87,49,19,29.94,29.80,8,2,19,0.00
2013-8-22,78,67,51,60,54,49,93,65,38,29.95,29.80,7,2,16,0.01
2013-8-23,77,65,53,58,54,48,94,70,45,29.95,29.78,7,2,18,0.17
2013-8-24,79,70,64,57,53,50,72,56,39,29.91,29.76,7,3,18,0.00
2013-8-25,78,66,51,58,53,49,94,65,43,30.01,29.87,7,2,18,0.00
2013-8-26,78,69,57,58,54,50,85,60,41,29.95,29.83,6,3,16,0.00
2013-8-27,74,66,62,58,57,55,87,73,54,29.90,29.80,6,2,17,0.00
2013-8-28,80,69,60,62,57,54,90,68,43,29.90,29.79,6,2,18,0.04
2013-8-29,82,69,54,58,54,50,95,62,36,29.97,29.84,6,1,13,0.01
2013-8-30,85,68,50,57,47,36,91,54,22,29.98,29.76,7,1,13,0.00
2013-8-31,88,70,48,54,44,39,90,48,19,29.94,29.64,6,1,13,0.00
2013-9-1,87,69,52,53,48,44,87,52,24,29.85,29.64,6,1,13,0.00
2013-9-8,72,67,64,56,53,49,73,60,43,29.79,29.69,7,2,16,0.00
2013-9-9,72,62,53,60,55,50,94,78,58,29.81,29.68,8,2,24,0.79
2013-9-10,72,65,61,62,58,55,88,77,60,29.84,29.72,10,2,22,0.14
2013-9-11,74,67,63,61,59,58,89,78,57,29.88,29.75,8,3,25,0.00
2013-9-12,72,66,62,60,58,54,87,76,56,29.89,29.75,6,2,20,0.00
2013-9-13,76,67,60,56,52,48,81,61,38,29.85,29.67,8,3,20,0.00
2013-9-14,76,67,56,52,49,42,79,53,38,29.79,29.67,8,2,18,0.00
2013-9-15,79,67,54,55,52,46,90,60,38,29.83,29.69,7,3,18,0.00
2013-9-16,73,66,60,58,56,53,89,71,50,29.91,29.81,6,4,19,0.00
2013-9-17,72,65,61,58,56,52,88,73,53,29.90,29.75,7,3,22,0.00
2013-9-18,75,66,61,61,58,54,96,79,50,29.83,29.65,6,2,20,0.08
2013-9-19,66,60,57,62,58,56,97,93,82,29.82,29.72,3,1,11,0.72
2013-9-20,64,57,52,60,54,51,96,91,74,29.96,29.78,6,2,14,0.54
2013-9-21,71,57,42,52,48,41,96,74,44,29.95,29.78,3,1,11,0.01
2013-9-22,73,67,57,50,47,44,71,50,36,29.79,29.60,5,2,13,0.01
2013-9-23,78,66,51,53,47,39,88,54,27,29.79,29.57,8,2,18,0.00
2013-9-24,77,58,40,43,38,31,86,54,20,30.04,29.82,5,1,12,0.00
2013-9-25,83,62,40,49,39,36,91,52,20,29.98,29.57,8,2,20,0.00
2013-9-26,83,72,50,49,43,38,77,38,25,29.77,29.51,9,3,22,0.00
2013-9-27,81,72,58,64,52,46,76,50,36,29.63,29.49,13,4,25,0.02
2013-9-28,71,61,46,59,40,24,90,50,23,30.07,29.53,7,2,17,0.10
2013-9-29,73,55,39,47,38,32,96,61,22,30.17,29.92,7,1,18,0.01
2013-9-30,79,61,38,36,33,29,85,42,18,29.95,29.68,8,3,20,0.00
2013-10-1,80,66,45,36,30,24,67,29,15,29.84,29.62,10,3,26,0.00
2013-10-2,82,59,38,42,35,29,78,47,18,30.01,29.75,9,2,20,0.00
2013-10-3,48,47,46,39,39,39,77,75,72,29.78,29.76,0,0,2,0.00
2013-10-8,79,66,42,40,31,21,72,31,12,29.96,29.64,9,3,21,0.00
2013-10-9,81,70,53,42,36,22,48,31,12,29.84,29.61,9,5,25,0.00
2013-10-10,80,68,56,39,32,25,44,28,14,29.77,29.53,10,4,22,0.00
2013-10-11,75,54,37,40,33,31,90,52,20,30.08,29.65,9,2,26,0.00
2013-10-12,75,64,48,58,48,39,86,60,28,29.96,29.76,7,2,22,0.01
2013-10-13,74,62,55,57,53,47,91,74,50,29.93,29.79,5,1,14,0.01
2013-10-14,71,66,57,53,47,44,84,52,38,29.87,29.74,8,3,17,0.01
2013-10-15,63,54,48,54,51,45,97,90,52,29.94,29.74,6,1,12,0.43
2013-10-16,66,52,40,54,46,39,99,84,48,30.08,29.76,7,2,20,0.01
2013-10-17,70,53,37,52,43,36,98,74,37,30.09,29.82,7,1,14,0.00
2013-10-18,71,52,36,51,32,16,97,58,15,30.03,29.82,8,2,20,0.01
2013-10-19,68,48,28,45,35,26,96,67,24,30.18,29.91,6,2,14,0.00
2013-10-20,70,49,31,43,29,22,95,58,16,30.09,29.82,10,3,22,0.01
2013-10-21,61,44,30,34,30,23,87,61,33,30.18,29.87,5,1,12,0.00
2013-10-22,70,46,29,41,30,25,97,64,19,30.34,30.06,6,1,14,0.00
2013-10-23,71,48,27,38,28,24,93,56,18,30.30,30.01,6,1,14,0.00
2013-10-24,75,52,33,37,32,29,88,54,24,30.26,29.94,5,2,14,0.00
2013-10-25,67,55,38,40,35,29,78,50,25,30.17,29.88,7,2,20,0.00
2013-10-26,72,53,37,48,40,36,95,67,31,30.16,29.97,6,1,13,0.00
2013-10-27,72,54,32,47,38,30,96,62,29,30.21,29.74,9,3,17,0.00
2013-10-28,73,61,46,49,39,25,83,48,17,29.92,29.67,10,4,22,0.00
2013-10-29,74,59,44,50,28,19,61,32,15,30.04,29.71,7,1,17,0.00
2013-10-30,68,60,51,54,44,35,80,56,37,29.88,29.67,10,4,24,0.01
2013-10-31,62,55,48,46,30,18,70,41,22,29.88,29.69,9,5,29,0.00
2013-11-1,61,52,29,24,18,11,60,28,16,30.22,29.77,14,5,31,0.00
2013-11-2,64,46,25,26,19,13,76,42,15,30.44,29.98,8,2,20,0.00
2013-11-3,59,52,39,46,37,23,83,57,31,30.00,29.71,8,3,21,0.01
2013-11-4,64,50,34,50,44,32,96,79,48,29.93,29.73,7,1,13,0.00
2013-11-5,66,51,38,50,40,32,96,70,32,30.00,29.68,8,2,16,0.01
2013-11-6,61,44,24,38,26,16,83,52,24,30.40,29.98,5,1,12,0.00
2013-11-7,59,43,22,28,11,-3,69,34,11,30.58,30.14,8,1,16,0.00
2013-11-8,49,48,46,33,31,28,59,53,48,30.14,30.11,3,2,10,0.00
2013-11-11,70,45,33,45,37,31,94,76,34,30.64,30.05,8,2,20,0.01
2013-11-12,51,37,33,41,35,30,98,93,62,30.63,30.34,6,3,17,0.01
2013-11-13,63,46,35,43,37,31,95,75,45,30.31,29.91,9,3,27,0.00
2013-11-14,64,45,29,42,35,28,96,73,42,30.09,29.82,10,3,22,0.01
2013-11-15,67,58,42,47,41,32,93,56,28,29.90,29.58,12,5,25,0.01
2013-11-16,68,60,53,46,39,33,56,47,33,29.82,29.54,12,6,35,0.00
2013-11-17,65,59,43,35,32,26,60,36,29,30.01,29.79,8,4,21,0.00
2013-11-18,65,54,40,38,34,30,73,49,33,30.15,29.89,7,1,14,0.00
2013-11-19,70,51,33,40,34,29,88,58,29,30.14,29.79,8,2,20,0.00
2013-11-20,72,51,37,50,34,25,97,60,19,29.97,29.70,7,2,17,0.00
2013-11-21,71,50,35,34,29,26,78,50,19,30.12,29.79,6,1,17,0.00
2013-11-22,48,32,22,43,28,20,93,85,73,30.45,29.89,5,3,12,0.00
2013-11-25,38,32,30,32,28,25,91,84,74,30.28,30.14,7,3,18,0.18
2013-11-26,41,30,20,25,18,7,86,64,30,30.56,30.25,15,4,35,0.03
2013-11-27,45,30,14,25,17,11,90,64,33,30.61,30.20,6,2,12,0.01
2013-11-28,61,36,19,28,22,16,90,63,24,30.44,30.14,5,1,10,0.00
2013-11-29,64,36,20,33,24,18,90,70,28,30.51,30.22,6,2,13,0.00
2013-12-3,64,58,47,39,36,26,61,45,24,29.70,29.52,12,6,27,0.00
2013-12-4,67,54,35,45,35,31,95,54,27,29.88,29.53,12,4,28,0.34
2013-12-5,53,41,32,46,36,29,98,86,54,30.11,29.64,7,2,21,0.16
2013-12-6,49,31,23,35,28,21,96,90,53,30.27,30.01,9,4,18,0.16
2013-12-7,55,42,28,36,25,15,94,58,20,30.14,29.80,12,5,29,0.00
2013-12-8,57,37,21,31,18,12,86,57,17,30.19,29.75,9,2,27,0.01
2013-12-9,56,43,21,25,18,10,81,44,16,30.29,30.01,9,3,20,0.00
2013-12-10,53,32,15,24,14,4,87,57,17,30.48,30.22,8,2,17,0.00
2013-12-11,46,35,26,31,20,14,80,57,27,30.52,30.13,7,1,10,0.00
2013-12-12,60,42,28,38,28,18,88,60,35,30.47,30.00,7,2,13,0.01
2013-12-13,51,46,36,40,33,26,95,62,40,30.00,29.80,13,5,32,0.00
2013-12-14,43,35,18,29,21,13,83,58,33,30.49,29.92,8,3,20,0.00
2013-12-15,52,32,12,26,12,7,88,53,19,30.60,30.23,7,2,19,0.00
2013-12-16,59,39,21,22,16,14,75,45,17,30.40,30.12,8,2,17,0.00
2013-12-17,66,39,21,27,19,15,81,52,17,30.51,30.17,5,1,12,0.00
2013-12-18,66,41,21,25,17,12,83,48,13,30.42,29.74,7,2,17,0.00
2013-12-19,67,54,33,33,24,14,60,32,19,29.93,29.54,10,3,27,0.00
2013-12-20,56,49,38,47,40,21,90,73,39,29.72,29.48,20,7,36,1.34
2013-12-21,45,37,31,40,26,22,91,65,52,29.84,29.47,16,9,35,0.14
2013-12-22,42,34,19,29,25,17,89,70,50,30.39,29.82,15,4,35,0.00
2013-12-23,53,32,18,22,16,11,91,61,19,30.59,30.36,5,1,10,0.00
2013-12-24,58,35,17,29,21,14,89,63,28,30.56,30.03,9,2,21,0.00
2013-12-25,48,36,23,28,25,20,90,67,42,30.48,29.98,7,2,14,0.00
2013-12-26,49,30,15,27,18,12,91,68,30,30.57,30.26,6,1,12,0.01
2013-12-27,49,30,16,30,20,13,90,71,37,30.54,30.28,7,1,13,0.00
2013-12-28,50,34,18,32,23,15,92,68,39,30.39,29.84,12,4,37,0.00
2013-12-29,45,36,19,24,20,14,82,55,31,30.33,29.80,10,3,21,0.00
2013-12-30,52,31,15,29,17,12,90,63,27,30.50,30.25,6,2,17,0.00
2013-12-31,55,33,16,27,17,13,88,59,22,30.54,30.02,7,2,17,0.00
2014-1-1,59,48,31,25,21,17,59,37,21,30.14,29.88,9,5,20,0.00
2014-1-2,54,36,16,24,18,12,89,54,24,30.54,30.15,7,2,14,0.00